createdAt,value
2016-07-31T00:00:29.027Z,22.25
2016-07-31T00:01:24.543Z,22.26
2016-07-31T00:02:28.227Z,22.23
2016-07-31T00:03:30.095Z,22.22
2016-07-31T00:04:15.249Z,22.21
2016-07-31T00:05:29.864Z,22.18
2016-07-31T00:06:14.330Z,22.18
2016-07-31T00:07:28.523Z,22.21
2016-07-31T00:08:27.235Z,22.17
2016-07-31T00:09:28.263Z,22.17
2016-07-31T00:10:26.155Z,22.18
2016-07-31T00:11:27.472Z,22.21
2016-07-31T00:12:33.271Z,22.22
2016-07-31T00:13:25.497Z,22.22
2016-07-31T00:14:24.379Z,22.21
2016-07-31T00:15:30.705Z,22.22
2016-07-31T00:16:13.853Z,22.21
2016-07-31T00:17:26.804Z,22.23
2016-07-31T00:18:22.312Z,22.22
2016-07-31T00:19:32.448Z,22.21
2016-07-31T00:20:13.459Z,22.19
2016-07-31T00:21:28.335Z,22.16
2016-07-31T00:22:31.989Z,22.14
2016-07-31T00:23:34.610Z,22.14
2016-07-31T00:24:33.103Z,22.15
2016-07-31T00:25:20.646Z,22.10
2016-07-31T00:26:30.006Z,22.10
2016-07-31T00:27:26.113Z,22.11
2016-07-31T00:28:27.689Z,22.07
2016-07-31T00:29:33.628Z,22.06
2016-07-31T00:30:28.293Z,22.05
2016-07-31T00:31:29.200Z,22.04
2016-07-31T00:32:28.116Z,22.04
2016-07-31T00:33:12.659Z,22.01
2016-07-31T00:34:27.736Z,22.01
2016-07-31T00:35:26.789Z,21.98
2016-07-31T00:36:27.223Z,21.98
2016-07-31T00:37:23.202Z,22.07
2016-07-31T00:38:25.967Z,22.56
2016-07-31T00:39:26.529Z,22.60
2016-07-31T00:40:29.392Z,22.57
2016-07-31T00:41:13.407Z,22.56
2016-07-31T00:42:28.505Z,22.56
2016-07-31T00:43:29.809Z,22.54
2016-07-31T00:44:11.867Z,22.56
2016-07-31T00:45:26.560Z,22.23
2016-07-31T00:46:13.048Z,22.02
2016-07-31T00:47:26.503Z,21.97
2016-07-31T00:48:27.859Z,22.04
2016-07-31T00:49:32.115Z,22.49
2016-07-31T00:50:13.559Z,22.57
2016-07-31T00:51:29.300Z,22.59
2016-07-31T00:52:28.279Z,22.60
2016-07-31T00:53:31.227Z,22.63
2016-07-31T00:54:19.694Z,22.09
2016-07-31T00:55:28.456Z,21.98
2016-07-31T00:56:28.030Z,21.97
2016-07-31T00:57:13.729Z,21.95
2016-07-31T00:58:23.772Z,21.94
2016-07-31T00:59:24.883Z,21.89
2016-07-31T01:00:36.329Z,21.87
2016-07-31T01:01:22.889Z,21.92
2016-07-31T01:02:15.551Z,21.93
2016-07-31T01:03:14.209Z,21.98
2016-07-31T01:04:27.812Z,21.97
2016-07-31T01:05:22.135Z,21.94
2016-07-31T01:06:28.337Z,21.98
2016-07-31T01:07:30.368Z,22.42
2016-07-31T01:08:14.243Z,21.88
2016-07-31T01:09:27.328Z,21.85
2016-07-31T01:10:24.591Z,21.85
2016-07-31T01:11:23.338Z,22.35
2016-07-31T01:12:26.035Z,22.35
2016-07-31T01:13:29.125Z,21.82
2016-07-31T01:14:16.981Z,21.77
2016-07-31T01:15:21.691Z,21.75
2016-07-31T01:16:14.402Z,21.72
2016-07-31T01:17:28.147Z,21.73
2016-07-31T01:18:26.542Z,21.73
2016-07-31T01:19:20.166Z,21.73
2016-07-31T01:20:29.588Z,21.74
2016-07-31T01:21:27.834Z,21.71
2016-07-31T01:22:29.616Z,21.72
2016-07-31T01:23:26.696Z,21.69
2016-07-31T01:24:26.736Z,21.71
2016-07-31T01:25:22.982Z,21.68
2016-07-31T01:26:28.460Z,21.70
2016-07-31T01:27:28.103Z,21.67
2016-07-31T01:28:28.125Z,21.68
2016-07-31T01:29:24.857Z,21.67
2016-07-31T01:30:25.832Z,21.66
2016-07-31T01:31:28.370Z,21.76
2016-07-31T01:32:30.051Z,22.22
2016-07-31T01:33:26.401Z,22.22
2016-07-31T01:34:15.559Z,22.27
2016-07-31T01:35:16.345Z,22.32
2016-07-31T01:36:32.004Z,22.34
2016-07-31T01:37:27.528Z,22.30
2016-07-31T01:38:14.479Z,22.33
2016-07-31T01:39:29.846Z,22.36
2016-07-31T01:40:26.047Z,22.38
2016-07-31T01:41:14.336Z,22.34
2016-07-31T01:42:26.845Z,21.80
2016-07-31T01:43:29.914Z,21.75
2016-07-31T01:44:37.567Z,21.73
2016-07-31T01:45:29.879Z,21.73
2016-07-31T01:46:30.383Z,21.69
2016-07-31T01:47:25.897Z,21.69
2016-07-31T01:48:29.563Z,21.71
2016-07-31T01:49:23.215Z,21.69
2016-07-31T01:50:34.259Z,21.65
2016-07-31T01:51:20.846Z,21.64
2016-07-31T01:52:28.510Z,21.60
2016-07-31T01:53:25.769Z,21.61
2016-07-31T01:54:23.377Z,21.59
2016-07-31T01:55:24.973Z,21.60
2016-07-31T01:56:27.129Z,21.58
2016-07-31T01:57:32.281Z,21.57
2016-07-31T01:58:31.468Z,21.59
2016-07-31T01:59:30.390Z,21.60
2016-07-31T02:00:33.661Z,21.58
2016-07-31T02:01:28.436Z,21.60
2016-07-31T02:02:30.425Z,21.64
2016-07-31T02:03:22.504Z,21.59
2016-07-31T02:04:28.412Z,21.65
2016-07-31T02:05:28.385Z,21.56
2016-07-31T02:06:27.094Z,21.58
2016-07-31T02:07:32.112Z,21.52
2016-07-31T02:08:29.164Z,21.52
2016-07-31T02:09:27.568Z,21.52
2016-07-31T02:10:27.962Z,21.54
2016-07-31T02:11:29.653Z,21.51
2016-07-31T02:12:24.405Z,21.55
2016-07-31T02:13:22.510Z,21.51
2016-07-31T02:14:27.214Z,21.52
2016-07-31T02:15:21.047Z,22.02
2016-07-31T02:16:26.038Z,22.07
2016-07-31T02:17:27.560Z,22.11
2016-07-31T02:18:28.129Z,22.13
2016-07-31T02:19:16.895Z,22.10
2016-07-31T02:20:30.643Z,22.11
2016-07-31T02:21:22.244Z,22.10
2016-07-31T02:22:31.971Z,22.11
2016-07-31T02:23:30.447Z,21.77
2016-07-31T02:24:24.373Z,21.56
2016-07-31T02:25:28.792Z,22.03
2016-07-31T02:26:33.064Z,22.08
2016-07-31T02:27:26.763Z,22.10
2016-07-31T02:28:31.364Z,22.09
2016-07-31T02:29:28.391Z,21.68
2016-07-31T02:30:25.355Z,21.52
2016-07-31T02:31:41.822Z,21.47
2016-07-31T02:32:24.899Z,21.46
2016-07-31T02:33:27.618Z,21.48
2016-07-31T02:34:27.375Z,21.46
2016-07-31T02:35:28.846Z,21.45
2016-07-31T02:36:30.784Z,21.42
2016-07-31T02:37:29.181Z,21.42
2016-07-31T02:38:26.817Z,21.42
2016-07-31T02:39:15.884Z,21.36
2016-07-31T02:40:33.558Z,21.53
2016-07-31T02:41:24.556Z,21.43
2016-07-31T02:42:28.081Z,21.39
2016-07-31T02:44:28.496Z,21.36
2016-07-31T02:45:24.934Z,21.36
2016-07-31T02:46:28.443Z,21.32
2016-07-31T02:47:27.041Z,21.35
2016-07-31T02:48:20.639Z,21.85
2016-07-31T02:49:25.526Z,21.36
2016-07-31T02:50:23.891Z,21.31
2016-07-31T02:51:26.407Z,21.31
2016-07-31T02:52:23.132Z,21.29
2016-07-31T02:53:29.262Z,21.30
2016-07-31T02:54:25.930Z,21.28
2016-07-31T02:55:28.249Z,21.27
2016-07-31T02:56:28.898Z,21.26
2016-07-31T02:57:26.847Z,21.27
2016-07-31T02:58:28.800Z,21.29
2016-07-31T02:59:15.725Z,21.32
2016-07-31T03:00:27.016Z,21.35
2016-07-31T03:01:14.652Z,21.35
2016-07-31T03:02:32.807Z,21.34
2016-07-31T03:03:27.520Z,21.33
2016-07-31T03:04:28.494Z,21.32
2016-07-31T03:05:28.528Z,21.32
2016-07-31T03:06:28.126Z,21.32
2016-07-31T03:07:28.677Z,21.30
2016-07-31T03:08:28.237Z,21.32
2016-07-31T03:09:15.064Z,21.29
2016-07-31T03:10:27.213Z,21.31
2016-07-31T03:11:26.426Z,21.30
2016-07-31T03:12:28.239Z,21.30
2016-07-31T03:13:39.027Z,21.30
2016-07-31T03:14:23.154Z,21.28
2016-07-31T03:15:21.292Z,21.29
2016-07-31T03:16:33.965Z,21.33
2016-07-31T03:17:16.104Z,21.34
2016-07-31T03:18:15.218Z,21.35
2016-07-31T03:19:33.910Z,21.32
2016-07-31T03:20:21.326Z,21.28
2016-07-31T03:21:27.847Z,21.81
2016-07-31T03:22:25.750Z,21.86
2016-07-31T03:23:28.158Z,21.88
2016-07-31T03:24:27.712Z,21.94
2016-07-31T03:25:30.018Z,21.46
2016-07-31T03:26:12.334Z,21.44
2016-07-31T03:27:20.806Z,21.39
2016-07-31T03:29:29.774Z,21.29
2016-07-31T03:30:15.497Z,21.27
2016-07-31T03:31:28.351Z,21.27
2016-07-31T03:32:23.185Z,21.25
2016-07-31T03:33:25.837Z,21.28
2016-07-31T03:34:21.642Z,21.28
2016-07-31T03:35:29.781Z,21.24
2016-07-31T03:36:32.581Z,21.25
2016-07-31T03:37:20.142Z,21.23
2016-07-31T03:38:30.469Z,21.77
2016-07-31T03:39:26.875Z,21.45
2016-07-31T03:40:26.764Z,21.32
2016-07-31T03:41:19.352Z,21.28
2016-07-31T03:42:32.841Z,21.25
2016-07-31T03:43:24.084Z,21.23
2016-07-31T03:44:23.231Z,21.22
2016-07-31T03:45:28.528Z,21.20
2016-07-31T03:46:29.792Z,21.20
2016-07-31T03:47:28.257Z,21.22
2016-07-31T03:48:27.378Z,21.21
2016-07-31T03:49:21.898Z,21.19
2016-07-31T03:50:28.559Z,21.20
2016-07-31T03:51:28.288Z,21.26
2016-07-31T03:52:14.114Z,21.19
2016-07-31T03:53:31.327Z,21.17
2016-07-31T03:54:26.710Z,21.17
2016-07-31T03:55:27.081Z,21.19
2016-07-31T03:56:26.777Z,21.17
2016-07-31T03:57:31.485Z,21.17
2016-07-31T03:58:26.119Z,21.15
2016-07-31T03:59:13.884Z,21.16
2016-07-31T04:00:26.283Z,21.16
2016-07-31T04:01:23.481Z,21.17
2016-07-31T04:02:28.869Z,21.18
2016-07-31T04:03:34.184Z,21.17
2016-07-31T04:04:29.092Z,21.15
2016-07-31T04:05:28.322Z,21.17
2016-07-31T04:06:33.936Z,21.15
2016-07-31T04:07:20.162Z,21.14
2016-07-31T04:08:31.450Z,21.15
2016-07-31T04:09:32.557Z,21.16
2016-07-31T04:10:26.235Z,21.16
2016-07-31T04:11:29.827Z,21.17
2016-07-31T04:12:29.116Z,21.16
2016-07-31T04:13:27.851Z,21.15
2016-07-31T04:14:21.078Z,21.15
2016-07-31T04:15:23.953Z,21.13
2016-07-31T04:16:25.406Z,21.14
2016-07-31T04:17:29.293Z,21.16
2016-07-31T04:18:16.262Z,21.15
2016-07-31T04:19:27.936Z,21.67
2016-07-31T04:20:29.082Z,21.35
2016-07-31T04:21:21.568Z,21.22
2016-07-31T04:22:28.313Z,21.19
2016-07-31T04:23:27.695Z,21.16
2016-07-31T04:24:26.934Z,21.18
2016-07-31T04:25:19.777Z,21.19
2016-07-31T04:26:27.410Z,21.28
2016-07-31T04:27:26.227Z,21.19
2016-07-31T04:28:31.580Z,21.19
2016-07-31T04:29:32.606Z,21.21
2016-07-31T04:30:28.279Z,21.23
2016-07-31T04:31:22.255Z,21.25
2016-07-31T04:32:26.295Z,21.25
2016-07-31T04:33:28.358Z,21.24
2016-07-31T04:34:28.595Z,21.21
2016-07-31T04:35:28.813Z,21.23
2016-07-31T04:36:36.350Z,21.25
2016-07-31T04:37:30.105Z,21.30
2016-07-31T04:38:24.701Z,21.32
2016-07-31T04:39:30.105Z,21.34
2016-07-31T04:40:28.131Z,21.35
2016-07-31T04:41:27.469Z,21.39
2016-07-31T04:42:28.408Z,21.34
2016-07-31T04:43:26.979Z,21.37
2016-07-31T04:44:33.195Z,21.32
2016-07-31T04:45:28.316Z,21.35
2016-07-31T04:46:30.788Z,21.34
2016-07-31T04:47:37.170Z,21.38
2016-07-31T04:48:20.939Z,21.41
2016-07-31T04:49:20.499Z,21.40
2016-07-31T04:50:33.285Z,21.41
2016-07-31T04:51:28.619Z,21.39
2016-07-31T04:52:28.292Z,21.39
2016-07-31T04:53:33.886Z,21.42
2016-07-31T04:54:27.222Z,21.44
2016-07-31T04:55:31.535Z,21.46
2016-07-31T04:56:23.902Z,21.46
2016-07-31T04:57:28.877Z,21.42
2016-07-31T04:58:26.760Z,21.42
2016-07-31T04:59:20.584Z,21.40
2016-07-31T05:00:22.244Z,21.41
2016-07-31T05:01:24.368Z,21.44
2016-07-31T05:02:27.721Z,21.42
2016-07-31T05:03:23.354Z,21.44
2016-07-31T05:04:28.448Z,21.47
2016-07-31T05:05:27.937Z,21.45
2016-07-31T05:06:16.507Z,21.46
2016-07-31T05:07:26.148Z,21.52
2016-07-31T05:08:28.679Z,21.54
2016-07-31T05:09:12.755Z,21.60
2016-07-31T05:10:28.441Z,22.08
2016-07-31T05:11:30.760Z,22.14
2016-07-31T05:12:27.451Z,21.63
2016-07-31T05:13:27.377Z,21.62
2016-07-31T05:14:22.634Z,21.61
2016-07-31T05:15:27.426Z,21.59
2016-07-31T05:16:14.107Z,21.60
2016-07-31T05:17:27.586Z,21.61
2016-07-31T05:18:28.381Z,21.61
2016-07-31T05:19:29.891Z,21.61
2016-07-31T05:20:26.550Z,21.63
2016-07-31T05:21:28.699Z,21.63
2016-07-31T05:22:31.406Z,21.62
2016-07-31T05:23:21.527Z,21.63
2016-07-31T05:24:28.961Z,21.63
2016-07-31T05:25:26.744Z,21.67
2016-07-31T05:26:31.108Z,21.65
2016-07-31T05:27:33.984Z,21.63
2016-07-31T05:28:33.117Z,21.64
2016-07-31T05:29:31.104Z,21.68
2016-07-31T05:30:19.223Z,21.65
2016-07-31T05:31:29.703Z,21.65
2016-07-31T05:32:26.039Z,21.68
2016-07-31T05:33:23.311Z,21.71
2016-07-31T05:34:19.846Z,21.70
2016-07-31T05:35:19.432Z,21.71
2016-07-31T05:36:30.449Z,21.71
2016-07-31T05:37:25.792Z,21.71
2016-07-31T05:38:29.365Z,21.72
2016-07-31T05:39:22.821Z,21.77
2016-07-31T05:40:29.735Z,21.71
2016-07-31T05:41:21.254Z,21.75
2016-07-31T05:42:18.445Z,21.73
2016-07-31T05:43:33.206Z,21.75
2016-07-31T05:44:25.561Z,21.76
2016-07-31T05:45:21.565Z,21.75
2016-07-31T05:46:28.404Z,21.74
2016-07-31T05:47:14.904Z,21.77
2016-07-31T05:48:28.746Z,21.76
2016-07-31T05:49:27.129Z,21.77
2016-07-31T05:50:14.687Z,21.79
2016-07-31T05:51:22.682Z,22.30
2016-07-31T05:52:26.552Z,22.37
2016-07-31T05:53:25.838Z,22.38
2016-07-31T05:54:25.938Z,22.38
2016-07-31T05:55:12.356Z,22.42
2016-07-31T05:56:28.888Z,22.40
2016-07-31T05:57:32.119Z,22.43
2016-07-31T05:58:29.718Z,22.41
2016-07-31T05:59:33.038Z,22.43
2016-07-31T06:00:15.467Z,22.42
2016-07-31T06:01:27.950Z,22.40
2016-07-31T06:02:26.381Z,22.04
2016-07-31T06:03:21.305Z,21.87
2016-07-31T06:04:28.740Z,21.84
2016-07-31T06:05:31.690Z,21.82
2016-07-31T06:06:27.117Z,21.81
2016-07-31T06:07:34.058Z,21.83
2016-07-31T06:08:28.704Z,21.81
2016-07-31T06:09:14.858Z,21.83
2016-07-31T06:10:34.327Z,21.84
2016-07-31T06:11:14.336Z,21.84
2016-07-31T06:12:14.632Z,21.85
2016-07-31T06:13:26.361Z,21.84
2016-07-31T06:14:13.427Z,21.89
2016-07-31T06:15:31.759Z,21.82
2016-07-31T06:16:12.163Z,21.82
2016-07-31T06:17:27.784Z,22.37
2016-07-31T06:18:29.519Z,22.42
2016-07-31T06:19:21.242Z,22.45
2016-07-31T06:20:27.266Z,22.48
2016-07-31T06:21:26.708Z,22.49
2016-07-31T06:22:31.614Z,22.50
2016-07-31T06:23:29.468Z,22.49
2016-07-31T06:24:14.176Z,22.50
2016-07-31T06:25:32.062Z,22.48
2016-07-31T06:26:29.730Z,22.11
2016-07-31T06:27:24.392Z,21.91
2016-07-31T06:28:28.276Z,21.88
2016-07-31T06:29:28.797Z,21.86
2016-07-31T06:30:27.178Z,21.85
2016-07-31T06:31:30.271Z,22.38
2016-07-31T06:32:34.498Z,22.44
2016-07-31T06:33:20.641Z,22.45
2016-07-31T06:34:31.487Z,22.13
2016-07-31T06:35:28.397Z,21.97
2016-07-31T06:36:28.778Z,21.91
2016-07-31T06:37:13.540Z,21.89
2016-07-31T06:38:20.894Z,21.89
2016-07-31T06:39:26.656Z,21.89
2016-07-31T06:40:30.047Z,21.89
2016-07-31T06:41:28.515Z,21.91
2016-07-31T06:42:33.783Z,21.90
2016-07-31T06:43:33.718Z,21.89
2016-07-31T06:44:30.069Z,21.88
2016-07-31T06:45:13.509Z,21.89
2016-07-31T06:46:15.274Z,21.91
2016-07-31T06:47:29.402Z,21.92
2016-07-31T06:48:28.785Z,21.93
2016-07-31T06:49:26.464Z,22.46
2016-07-31T06:50:28.500Z,22.51
2016-07-31T06:51:28.525Z,22.54
2016-07-31T06:52:29.625Z,22.57
2016-07-31T06:53:12.197Z,22.58
2016-07-31T06:54:28.383Z,22.22
2016-07-31T06:55:28.534Z,22.06
2016-07-31T06:56:30.036Z,22.00
2016-07-31T06:57:30.307Z,21.96
2016-07-31T06:58:32.949Z,21.97
2016-07-31T07:00:23.224Z,21.97
2016-07-31T07:01:14.666Z,22.02
2016-07-31T07:02:26.330Z,21.97
2016-07-31T07:03:11.611Z,21.96
2016-07-31T07:04:10.389Z,21.94
2016-07-31T07:05:28.967Z,21.95
2016-07-31T07:06:30.316Z,21.95
2016-07-31T07:07:16.823Z,21.99
2016-07-31T07:08:30.572Z,22.01
2016-07-31T07:09:28.852Z,22.01
2016-07-31T07:10:29.709Z,22.01
2016-07-31T07:11:30.017Z,22.04
2016-07-31T07:12:31.038Z,22.01
2016-07-31T07:13:14.544Z,21.99
2016-07-31T07:15:18.975Z,22.02
2016-07-31T07:16:29.997Z,22.03
2016-07-31T07:17:27.600Z,22.02
2016-07-31T07:18:28.166Z,22.03
2016-07-31T07:19:28.824Z,22.02
2016-07-31T07:20:25.906Z,22.02
2016-07-31T07:21:29.856Z,22.04
2016-07-31T07:22:27.880Z,22.03
2016-07-31T07:23:27.169Z,22.04
2016-07-31T07:24:29.863Z,22.04
2016-07-31T07:25:22.607Z,22.05
2016-07-31T07:26:28.072Z,22.07
2016-07-31T07:27:25.385Z,22.05
2016-07-31T07:28:30.342Z,22.05
2016-07-31T07:30:30.370Z,22.04
2016-07-31T07:31:26.810Z,22.08
2016-07-31T07:32:23.163Z,22.55
2016-07-31T07:33:28.580Z,22.08
2016-07-31T07:34:23.562Z,22.05
2016-07-31T07:35:29.919Z,22.03
2016-07-31T07:36:28.327Z,22.02
2016-07-31T07:37:34.671Z,22.01
2016-07-31T07:38:29.871Z,21.99
2016-07-31T07:39:34.530Z,21.98
2016-07-31T07:40:31.773Z,21.99
2016-07-31T07:41:30.353Z,21.97
2016-07-31T07:42:23.779Z,21.98
2016-07-31T07:43:26.811Z,21.97
2016-07-31T07:44:23.013Z,22.01
2016-07-31T07:45:24.210Z,22.08
2016-07-31T07:46:25.803Z,22.14
2016-07-31T07:47:32.924Z,22.20
2016-07-31T07:48:34.895Z,22.23
2016-07-31T07:49:14.054Z,22.25
2016-07-31T07:50:32.602Z,22.26
2016-07-31T07:51:28.628Z,22.26
2016-07-31T07:52:30.616Z,22.28
2016-07-31T07:53:28.075Z,22.29
2016-07-31T07:54:31.590Z,22.33
2016-07-31T07:55:21.096Z,22.36
2016-07-31T07:56:33.910Z,22.48
2016-07-31T07:57:37.910Z,22.49
2016-07-31T07:58:38.349Z,22.51
2016-07-31T07:59:22.138Z,22.50
2016-07-31T08:00:31.942Z,22.48
2016-07-31T08:01:28.789Z,22.47
2016-07-31T08:02:27.331Z,22.48
2016-07-31T08:03:27.540Z,22.49
2016-07-31T08:04:32.541Z,22.54
2016-07-31T08:05:28.911Z,23.06
2016-07-31T08:06:20.021Z,23.13
2016-07-31T08:07:15.877Z,23.17
2016-07-31T08:08:26.120Z,23.18
2016-07-31T08:09:27.684Z,23.17
2016-07-31T08:10:09.864Z,23.17
2016-07-31T08:11:26.024Z,22.63
2016-07-31T08:12:23.016Z,22.58
2016-07-31T08:13:30.369Z,22.56
2016-07-31T08:15:19.147Z,22.54
2016-07-31T08:16:27.423Z,22.52
2016-07-31T08:17:28.927Z,22.51
2016-07-31T08:18:33.490Z,22.54
2016-07-31T08:19:31.232Z,22.53
2016-07-31T08:20:30.189Z,22.55
2016-07-31T08:21:12.551Z,22.59
2016-07-31T08:22:28.456Z,22.56
2016-07-31T08:23:24.349Z,22.60
2016-07-31T08:24:26.040Z,22.61
2016-07-31T08:25:29.594Z,22.71
2016-07-31T08:26:13.449Z,22.68
2016-07-31T08:27:26.322Z,23.20
2016-07-31T08:28:17.810Z,23.26
2016-07-31T08:29:13.507Z,23.32
2016-07-31T08:30:33.916Z,23.35
2016-07-31T08:31:28.001Z,23.36
2016-07-31T08:32:28.697Z,23.37
2016-07-31T08:33:22.547Z,22.87
2016-07-31T08:34:16.978Z,22.83
2016-07-31T08:35:13.118Z,22.82
2016-07-31T08:36:20.332Z,22.81
2016-07-31T08:37:19.552Z,23.33
2016-07-31T08:38:22.580Z,23.39
2016-07-31T08:39:26.903Z,23.43
2016-07-31T08:40:23.876Z,23.44
2016-07-31T08:41:26.862Z,23.47
2016-07-31T08:42:28.028Z,23.44
2016-07-31T08:43:12.795Z,23.29
2016-07-31T08:44:13.699Z,22.98
2016-07-31T08:45:20.351Z,22.99
2016-07-31T08:46:26.107Z,22.90
2016-07-31T08:47:22.422Z,22.90
2016-07-31T08:48:28.935Z,22.98
2016-07-31T08:49:28.349Z,22.92
2016-07-31T08:50:21.805Z,22.94
2016-07-31T08:51:40.231Z,22.92
2016-07-31T08:52:27.868Z,22.93
2016-07-31T08:53:21.915Z,22.95
2016-07-31T08:54:27.210Z,22.93
2016-07-31T08:55:28.967Z,22.92
2016-07-31T08:56:22.622Z,22.95
2016-07-31T08:57:27.656Z,22.95
2016-07-31T08:58:21.862Z,22.94
2016-07-31T08:59:17.651Z,22.95
2016-07-31T09:00:31.368Z,22.96
2016-07-31T09:01:26.352Z,22.94
2016-07-31T09:02:27.984Z,22.96
2016-07-31T09:03:27.984Z,22.98
2016-07-31T09:04:22.382Z,22.98
2016-07-31T09:05:24.176Z,22.98
2016-07-31T09:06:19.354Z,22.99
2016-07-31T09:07:28.401Z,22.98
2016-07-31T09:08:19.292Z,22.99
2016-07-31T09:09:26.676Z,22.99
2016-07-31T09:10:27.170Z,22.99
2016-07-31T09:11:26.936Z,22.98
2016-07-31T09:12:26.928Z,22.99
2016-07-31T09:13:27.629Z,22.98
2016-07-31T09:14:29.968Z,22.99
2016-07-31T09:15:28.978Z,23.00
2016-07-31T09:16:22.157Z,23.00
2016-07-31T09:17:14.378Z,23.00
2016-07-31T09:18:28.777Z,22.98
2016-07-31T09:19:26.837Z,23.16
2016-07-31T09:20:15.233Z,23.06
2016-07-31T09:21:30.229Z,23.03
2016-07-31T09:22:14.450Z,23.01
2016-07-31T09:23:48.927Z,23.02
2016-07-31T09:24:32.218Z,23.03
2016-07-31T09:25:29.018Z,23.02
2016-07-31T09:26:12.684Z,23.03
2016-07-31T09:27:27.747Z,23.04
2016-07-31T09:28:21.420Z,23.02
2016-07-31T09:29:27.976Z,23.03
2016-07-31T09:30:26.953Z,23.56
2016-07-31T09:31:12.059Z,23.63
2016-07-31T09:32:31.955Z,23.66
2016-07-31T09:33:13.748Z,23.69
2016-07-31T09:34:32.160Z,23.68
2016-07-31T09:35:30.137Z,23.70
2016-07-31T09:36:34.100Z,23.33
2016-07-31T09:37:26.900Z,23.16
2016-07-31T09:38:24.119Z,23.11
2016-07-31T09:39:21.573Z,23.09
2016-07-31T09:40:13.454Z,23.08
2016-07-31T09:41:14.637Z,23.07
2016-07-31T09:42:27.694Z,23.07
2016-07-31T09:43:12.859Z,23.10
2016-07-31T09:44:21.398Z,23.60
2016-07-31T09:45:25.869Z,23.66
2016-07-31T09:46:22.175Z,23.68
2016-07-31T09:47:28.069Z,23.69
2016-07-31T09:48:29.667Z,23.71
2016-07-31T09:49:27.199Z,23.72
2016-07-31T09:50:27.149Z,23.72
2016-07-31T09:51:16.631Z,23.71
2016-07-31T09:52:32.002Z,23.17
2016-07-31T09:53:12.548Z,23.13
2016-07-31T09:54:10.017Z,23.10
2016-07-31T09:55:14.648Z,23.09
2016-07-31T09:56:13.337Z,23.08
2016-07-31T09:57:28.880Z,23.07
2016-07-31T09:58:14.134Z,23.07
2016-07-31T09:59:27.151Z,23.10
2016-07-31T10:00:26.992Z,23.06
2016-07-31T10:01:32.825Z,23.07
2016-07-31T10:02:32.294Z,23.07
2016-07-31T10:03:14.785Z,23.08
2016-07-31T10:04:13.474Z,23.07
2016-07-31T10:05:31.035Z,23.06
2016-07-31T10:06:27.201Z,23.08
2016-07-31T10:07:24.093Z,23.10
2016-07-31T10:08:30.757Z,23.07
2016-07-31T10:09:33.634Z,23.07
2016-07-31T10:10:33.512Z,23.07
2016-07-31T10:11:22.222Z,23.09
2016-07-31T10:12:26.561Z,23.08
2016-07-31T10:13:23.453Z,23.08
2016-07-31T10:14:17.635Z,23.08
2016-07-31T10:16:22.075Z,23.07
2016-07-31T10:17:12.850Z,23.62
2016-07-31T10:18:30.937Z,23.67
2016-07-31T10:19:28.795Z,23.40
2016-07-31T10:20:33.156Z,23.17
2016-07-31T10:21:27.818Z,23.13
2016-07-31T10:22:12.626Z,23.65
2016-07-31T10:23:29.494Z,23.70
2016-07-31T10:24:32.871Z,23.72
2016-07-31T10:25:17.529Z,23.72
2016-07-31T10:26:31.910Z,23.74
2016-07-31T10:27:23.686Z,23.75
2016-07-31T10:28:32.051Z,23.21
2016-07-31T10:29:12.632Z,23.17
2016-07-31T10:30:27.050Z,23.13
2016-07-31T10:31:33.812Z,23.12
2016-07-31T10:32:28.705Z,23.11
2016-07-31T10:33:30.323Z,23.11
2016-07-31T10:34:15.135Z,23.11
2016-07-31T10:35:37.347Z,23.10
2016-07-31T10:36:35.399Z,23.07
2016-07-31T10:37:12.622Z,23.10
2016-07-31T10:38:12.051Z,23.10
2016-07-31T10:39:29.127Z,23.09
2016-07-31T10:40:13.401Z,23.10
2016-07-31T10:41:27.501Z,23.10
2016-07-31T10:42:12.729Z,23.10
2016-07-31T10:43:12.193Z,23.09
2016-07-31T10:44:34.723Z,23.15
2016-07-31T10:45:34.014Z,23.11
2016-07-31T10:46:21.734Z,23.14
2016-07-31T10:47:21.226Z,23.11
2016-07-31T10:48:20.898Z,23.11
2016-07-31T10:49:13.194Z,23.10
2016-07-31T10:50:17.255Z,23.10
2016-07-31T10:51:21.635Z,23.08
2016-07-31T10:52:14.522Z,23.07
2016-07-31T10:53:23.032Z,23.07
2016-07-31T10:54:33.513Z,23.06
2016-07-31T10:55:14.228Z,23.04
2016-07-31T10:56:16.529Z,23.04
2016-07-31T10:57:13.160Z,23.04
2016-07-31T10:58:26.047Z,23.03
2016-07-31T10:59:28.824Z,23.01
2016-07-31T11:00:31.213Z,23.00
2016-07-31T11:01:13.517Z,23.03
2016-07-31T11:02:23.606Z,23.01
2016-07-31T11:03:26.482Z,22.99
2016-07-31T11:04:28.345Z,22.98
2016-07-31T11:05:23.221Z,22.99
2016-07-31T11:06:32.239Z,22.99
2016-07-31T11:07:19.478Z,22.97
2016-07-31T11:08:24.751Z,23.02
2016-07-31T11:09:31.133Z,22.97
2016-07-31T11:10:32.442Z,22.98
2016-07-31T11:11:23.330Z,22.96
2016-07-31T11:12:26.937Z,22.96
2016-07-31T11:13:22.476Z,22.95
2016-07-31T11:14:27.348Z,23.00
2016-07-31T11:16:20.182Z,22.94
2016-07-31T11:17:25.683Z,22.94
2016-07-31T11:18:16.951Z,22.93
2016-07-31T11:19:27.732Z,23.47
2016-07-31T11:20:24.789Z,23.54
2016-07-31T11:21:30.160Z,23.55
2016-07-31T11:22:26.725Z,23.56
2016-07-31T11:23:14.511Z,23.22
2016-07-31T11:24:16.269Z,23.04
2016-07-31T11:25:15.551Z,22.99
2016-07-31T11:26:14.968Z,22.96
2016-07-31T11:27:11.521Z,22.94
2016-07-31T11:28:30.171Z,22.94
2016-07-31T11:29:27.870Z,22.92
2016-07-31T11:30:12.837Z,22.92
2016-07-31T11:31:12.831Z,22.97
2016-07-31T11:32:12.424Z,22.89
2016-07-31T11:33:22.044Z,22.91
2016-07-31T11:34:29.700Z,22.92
2016-07-31T11:35:25.636Z,22.91
2016-07-31T11:36:28.034Z,22.91
2016-07-31T11:37:28.804Z,22.91
2016-07-31T11:38:14.594Z,22.90
2016-07-31T11:39:13.091Z,22.90
2016-07-31T11:40:12.908Z,22.89
2016-07-31T11:41:31.467Z,22.89
2016-07-31T11:42:18.949Z,22.92
2016-07-31T11:43:30.963Z,22.90
2016-07-31T11:44:16.705Z,22.89
2016-07-31T11:46:13.160Z,22.90
2016-07-31T11:47:21.358Z,22.89
2016-07-31T11:48:28.304Z,22.89
2016-07-31T11:49:26.446Z,22.90
2016-07-31T11:50:30.782Z,22.88
2016-07-31T11:51:23.098Z,22.89
2016-07-31T11:52:21.550Z,22.89
2016-07-31T11:53:17.078Z,22.90
2016-07-31T11:54:26.490Z,22.88
2016-07-31T11:55:13.585Z,22.92
2016-07-31T11:56:30.161Z,22.92
2016-07-31T11:57:30.762Z,22.90
2016-07-31T11:58:12.922Z,22.90
2016-07-31T11:59:29.644Z,22.89
2016-07-31T12:01:28.339Z,22.89
2016-07-31T12:02:32.728Z,22.90
2016-07-31T12:03:27.145Z,22.97
2016-07-31T12:04:20.565Z,22.89
2016-07-31T12:05:14.369Z,22.90
2016-07-31T12:06:13.332Z,22.89
2016-07-31T12:07:14.604Z,22.89
2016-07-31T12:08:16.492Z,22.90
2016-07-31T12:09:26.905Z,22.95
2016-07-31T12:10:20.967Z,22.90
2016-07-31T12:11:30.759Z,22.88
2016-07-31T12:12:26.698Z,22.90
2016-07-31T12:13:16.223Z,22.89
2016-07-31T12:14:29.950Z,22.90
2016-07-31T12:15:20.673Z,22.90
2016-07-31T12:16:23.605Z,22.91
2016-07-31T12:17:32.960Z,22.92
2016-07-31T12:18:29.279Z,22.92
2016-07-31T12:19:29.971Z,22.91
2016-07-31T12:20:12.398Z,22.92
2016-07-31T12:21:22.767Z,22.90
2016-07-31T12:22:25.009Z,22.91
2016-07-31T12:23:30.017Z,22.91
2016-07-31T12:24:22.497Z,22.91
2016-07-31T12:25:30.490Z,22.92
2016-07-31T12:26:15.730Z,22.91
2016-07-31T12:27:19.547Z,22.92
2016-07-31T12:28:24.391Z,22.91
2016-07-31T12:29:16.661Z,22.92
2016-07-31T12:30:28.238Z,22.92
2016-07-31T12:31:21.754Z,22.93
2016-07-31T12:32:28.001Z,22.92
2016-07-31T12:33:17.269Z,22.92
2016-07-31T12:34:30.472Z,22.92
2016-07-31T12:35:28.546Z,22.93
2016-07-31T12:36:25.829Z,22.93
2016-07-31T12:37:27.184Z,22.93
2016-07-31T12:38:29.894Z,22.93
2016-07-31T12:39:31.613Z,22.93
2016-07-31T12:40:21.163Z,22.94
2016-07-31T12:41:33.930Z,22.94
2016-07-31T12:42:27.026Z,22.96
2016-07-31T12:43:27.487Z,22.94
2016-07-31T12:44:21.709Z,22.94
2016-07-31T12:45:13.963Z,22.93
2016-07-31T12:46:22.025Z,22.93
2016-07-31T12:47:26.739Z,22.93
2016-07-31T12:48:30.665Z,22.94
2016-07-31T12:49:23.294Z,22.93
2016-07-31T12:50:28.007Z,22.93
2016-07-31T12:51:31.866Z,22.93
2016-07-31T12:52:13.611Z,22.93
2016-07-31T12:53:24.879Z,22.93
2016-07-31T12:54:33.034Z,22.93
2016-07-31T12:55:34.320Z,22.93
2016-07-31T12:56:35.064Z,22.93
2016-07-31T12:57:12.981Z,22.93
2016-07-31T12:58:12.990Z,22.93
2016-07-31T12:59:29.328Z,22.93
2016-07-31T13:00:12.641Z,22.95
2016-07-31T13:01:24.887Z,22.93
2016-07-31T13:02:13.200Z,22.93